createdAt,value
2023-04-23T00:00:54.838Z,0.00
2023-04-23T00:01:53.684Z,0.00
2023-04-23T00:02:53.867Z,0.00
2023-04-23T00:03:53.855Z,0.00
2023-04-23T00:04:53.727Z,0.00
2023-04-23T00:05:53.657Z,0.00
2023-04-23T00:06:53.625Z,0.00
2023-04-23T00:07:53.605Z,0.00
2023-04-23T00:08:53.594Z,0.00
2023-04-23T00:09:53.592Z,0.00
2023-04-23T00:10:53.573Z,0.00
2023-04-23T00:11:53.566Z,0.00
2023-04-23T00:12:53.550Z,0.00
2023-04-23T00:13:53.541Z,0.00
2023-04-23T00:14:53.527Z,0.00
2023-04-23T00:15:53.568Z,0.00
2023-04-23T00:16:53.513Z,0.00
2023-04-23T00:17:53.516Z,0.00
2023-04-23T00:18:53.494Z,0.00
2023-04-23T00:19:53.510Z,0.00
2023-04-23T00:20:53.459Z,0.00
2023-04-23T00:21:53.483Z,0.00
2023-04-23T00:22:53.440Z,0.00
2023-04-23T00:23:53.427Z,0.00
2023-04-23T00:24:53.414Z,0.00
2023-04-23T00:25:53.402Z,0.00
2023-04-23T00:26:53.391Z,0.00
2023-04-23T00:27:53.383Z,0.00
2023-04-23T00:28:53.367Z,0.00
2023-04-23T00:29:53.377Z,0.00
2023-04-23T00:30:53.349Z,0.00
2023-04-23T00:31:53.460Z,0.00
2023-04-23T00:32:53.371Z,0.00
2023-04-23T00:33:53.314Z,0.00
2023-04-23T00:34:53.308Z,0.00
2023-04-23T00:35:53.288Z,0.00
2023-04-23T00:36:53.288Z,0.00
2023-04-23T00:37:53.300Z,0.00
2023-04-23T00:38:53.259Z,0.00
2023-04-23T00:39:53.247Z,0.00
2023-04-23T00:40:53.233Z,0.00
2023-04-23T00:41:53.222Z,0.00
2023-04-23T00:42:53.211Z,0.00
2023-04-23T00:43:53.318Z,0.00
2023-04-23T00:44:53.191Z,0.00
2023-04-23T00:45:53.215Z,0.00
2023-04-23T00:46:53.163Z,0.00
2023-04-23T00:47:53.195Z,0.00
2023-04-23T00:48:53.145Z,0.00
2023-04-23T00:49:53.135Z,0.00
2023-04-23T00:50:53.113Z,0.00
2023-04-23T00:51:53.103Z,0.00
2023-04-23T00:52:53.095Z,0.00
2023-04-23T00:53:53.116Z,0.00
2023-04-23T00:54:53.068Z,0.00
2023-04-23T00:55:53.073Z,0.00
2023-04-23T00:56:53.066Z,0.00
2023-04-23T00:57:53.041Z,0.00
2023-04-23T00:58:53.041Z,0.00
2023-04-23T00:59:53.026Z,0.00
2023-04-23T01:00:53.063Z,0.00
2023-04-23T01:01:53.008Z,0.00
2023-04-23T01:02:53.439Z,0.00
2023-04-23T01:03:53.533Z,0.00
2023-04-23T01:04:52.959Z,0.00
2023-04-23T01:05:52.969Z,0.00
2023-04-23T01:06:52.939Z,0.00
2023-04-23T01:07:52.928Z,0.00
2023-04-23T01:08:52.909Z,0.00
2023-04-23T01:09:52.997Z,0.00
2023-04-23T01:10:52.887Z,0.00
2023-04-23T01:11:52.886Z,0.00
2023-04-23T01:12:52.868Z,0.00
2023-04-23T01:13:52.855Z,0.00
2023-04-23T01:14:52.837Z,0.00
2023-04-23T01:15:52.839Z,0.00
2023-04-23T01:16:52.945Z,0.00
2023-04-23T01:17:52.838Z,0.00
2023-04-23T01:18:52.794Z,0.00
2023-04-23T01:19:52.785Z,0.00
2023-04-23T01:20:52.771Z,0.00
2023-04-23T01:21:52.771Z,0.00
2023-04-23T01:22:52.749Z,0.00
2023-04-23T01:23:52.744Z,0.00
2023-04-23T01:24:52.731Z,0.00
2023-04-23T01:25:52.744Z,0.00
2023-04-23T01:26:52.711Z,0.00
2023-04-23T01:27:52.699Z,0.00
2023-04-23T01:28:52.690Z,0.00
2023-04-23T01:29:52.672Z,0.00
2023-04-23T01:30:52.694Z,0.00
2023-04-23T01:31:52.656Z,0.00
2023-04-23T01:32:52.713Z,0.00
2023-04-23T01:33:52.635Z,0.00
2023-04-23T01:34:52.626Z,0.00
2023-04-23T01:35:52.622Z,0.00
2023-04-23T01:36:52.600Z,0.00
2023-04-23T01:37:52.686Z,0.00
2023-04-23T01:38:52.574Z,0.00
2023-04-23T01:39:52.563Z,0.00
2023-04-23T01:40:52.551Z,0.00
2023-04-23T01:41:52.571Z,0.00
2023-04-23T01:42:52.529Z,0.00
2023-04-23T01:43:52.566Z,0.00
2023-04-23T01:44:52.509Z,0.00
2023-04-23T01:45:52.537Z,0.00
2023-04-23T01:46:52.484Z,0.00
2023-04-23T01:47:52.524Z,0.00
2023-04-23T01:48:52.468Z,0.00
2023-04-23T01:49:52.456Z,0.00
2023-04-23T01:50:52.440Z,0.00
2023-04-23T01:51:52.431Z,0.00
2023-04-23T01:52:52.419Z,0.00
2023-04-23T01:53:52.411Z,0.00
2023-04-23T01:54:52.396Z,0.00
2023-04-23T01:55:52.405Z,0.00
2023-04-23T01:56:52.414Z,0.00
2023-04-23T01:57:52.447Z,0.00
2023-04-23T01:58:52.456Z,0.00
2023-04-23T01:59:52.465Z,0.00
2023-04-23T02:00:52.577Z,0.00
2023-04-23T02:01:52.509Z,0.00
2023-04-23T02:02:52.460Z,0.00
2023-04-23T02:03:52.365Z,0.00
2023-04-23T02:04:52.288Z,0.00
2023-04-23T02:05:52.278Z,0.00
2023-04-23T02:06:52.279Z,0.00
2023-04-23T02:07:52.260Z,0.00
2023-04-23T02:08:52.243Z,0.00
2023-04-23T02:09:52.238Z,0.00
2023-04-23T02:10:52.222Z,0.00
2023-04-23T02:11:52.216Z,0.00
2023-04-23T02:12:52.195Z,0.00
2023-04-23T02:13:52.209Z,0.00
2023-04-23T02:14:52.184Z,0.00
2023-04-23T02:15:52.200Z,0.00
2023-04-23T02:16:52.155Z,0.00
2023-04-23T02:17:52.171Z,0.00
2023-04-23T02:18:52.131Z,0.00
2023-04-23T02:19:52.122Z,0.00
2023-04-23T02:20:52.110Z,0.00
2023-04-23T02:21:52.106Z,0.00
2023-04-23T02:22:52.093Z,0.00
2023-04-23T02:23:52.075Z,0.00
2023-04-23T02:24:52.065Z,0.00
2023-04-23T02:25:52.058Z,0.00
2023-04-23T02:26:52.043Z,0.00
2023-04-23T02:27:52.026Z,0.00
2023-04-23T02:28:52.030Z,0.00
2023-04-23T02:29:52.028Z,0.00
2023-04-23T02:30:51.999Z,0.00
2023-04-23T02:31:52.044Z,0.00
2023-04-23T02:32:52.018Z,0.00
2023-04-23T02:33:51.966Z,0.00
2023-04-23T02:34:51.950Z,0.00
2023-04-23T02:35:51.938Z,0.00
2023-04-23T02:36:51.929Z,0.00
2023-04-23T02:37:51.916Z,0.00
2023-04-23T02:38:51.913Z,0.00
2023-04-23T02:39:51.892Z,0.00
2023-04-23T02:40:51.883Z,0.00
2023-04-23T02:41:51.889Z,0.00
2023-04-23T02:42:51.858Z,0.00
2023-04-23T02:43:51.849Z,0.00
2023-04-23T02:44:51.852Z,0.00
2023-04-23T02:45:51.952Z,0.00
2023-04-23T02:46:51.840Z,0.00
2023-04-23T02:47:51.833Z,0.00
2023-04-23T02:48:51.794Z,0.00
2023-04-23T02:49:51.811Z,0.00
2023-04-23T02:50:51.770Z,0.00
2023-04-23T02:51:51.769Z,0.00
2023-04-23T02:52:51.756Z,0.00
2023-04-23T02:53:51.751Z,0.00
2023-04-23T02:54:51.722Z,0.00
2023-04-23T02:55:51.708Z,0.00
2023-04-23T02:56:51.712Z,0.00
2023-04-23T02:57:51.696Z,0.00
2023-04-23T02:58:51.692Z,0.00
2023-04-23T02:59:51.670Z,0.00
2023-04-23T03:00:51.704Z,0.00
2023-04-23T03:01:51.703Z,0.00
2023-04-23T03:02:51.737Z,0.00
2023-04-23T03:03:51.777Z,0.00
2023-04-23T03:04:51.615Z,0.00
2023-04-23T03:05:51.602Z,0.00
2023-04-23T03:06:51.585Z,0.00
2023-04-23T03:07:51.575Z,0.00
2023-04-23T03:08:51.560Z,0.00
2023-04-23T03:09:51.584Z,0.00
2023-04-23T03:10:51.549Z,0.00
2023-04-23T03:11:51.526Z,0.00
2023-04-23T03:12:51.515Z,0.00
2023-04-23T03:13:51.515Z,0.00
2023-04-23T03:14:51.492Z,0.00
2023-04-23T03:15:51.480Z,0.00
2023-04-23T03:16:51.500Z,0.00
2023-04-23T03:17:51.517Z,0.00
2023-04-23T03:18:51.465Z,0.00
2023-04-23T03:19:51.438Z,0.00
2023-04-23T03:20:51.428Z,0.00
2023-04-23T03:21:51.424Z,0.00
2023-04-23T03:22:51.404Z,0.00
2023-04-23T03:23:51.389Z,0.00
2023-04-23T03:24:51.383Z,0.00
2023-04-23T03:25:51.373Z,0.00
2023-04-23T03:26:51.362Z,0.00
2023-04-23T03:27:51.349Z,0.00
2023-04-23T03:28:51.351Z,0.00
2023-04-23T03:29:51.326Z,0.00
2023-04-23T03:30:51.351Z,0.00
2023-04-23T03:31:51.318Z,0.00
2023-04-23T03:32:51.324Z,0.00
2023-04-23T03:33:51.303Z,0.00
2023-04-23T03:34:51.279Z,0.00
2023-04-23T03:35:51.257Z,4.00
2023-04-23T03:36:51.268Z,4.00
2023-04-23T03:37:51.235Z,4.00
2023-04-23T03:38:51.219Z,4.00
2023-04-23T03:39:51.207Z,4.00
2023-04-23T03:40:51.205Z,0.00
2023-04-23T03:41:51.190Z,0.00
2023-04-23T03:42:51.188Z,0.00
2023-04-23T03:43:51.164Z,4.00
2023-04-23T03:44:51.156Z,4.00
2023-04-23T03:45:51.257Z,4.00
2023-04-23T03:46:51.133Z,8.00
2023-04-23T03:47:51.154Z,4.00
2023-04-23T03:48:51.118Z,8.00
2023-04-23T03:49:51.124Z,8.00
2023-04-23T03:50:51.094Z,12.00
2023-04-23T03:51:51.072Z,16.00
2023-04-23T03:52:51.067Z,16.00
2023-04-23T03:53:51.059Z,16.00
2023-04-23T03:54:51.069Z,24.00
2023-04-23T03:55:51.041Z,24.00
2023-04-23T03:56:51.045Z,28.00
2023-04-23T03:57:51.016Z,28.00
2023-04-23T03:58:51.002Z,32.00
2023-04-23T03:59:51.030Z,40.00
2023-04-23T04:00:50.984Z,44.00
2023-04-23T04:01:50.983Z,52.00
2023-04-23T04:02:51.151Z,60.00
2023-04-23T04:03:51.239Z,72.00
2023-04-23T04:04:51.172Z,88.00
2023-04-23T04:05:51.095Z,96.00
2023-04-23T04:06:50.908Z,112.00
2023-04-23T04:07:50.930Z,128.00
2023-04-23T04:08:50.904Z,140.00
2023-04-23T04:09:50.877Z,152.00
2023-04-23T04:10:50.868Z,168.00
2023-04-23T04:11:53.280Z,180.00
2023-04-23T04:12:50.846Z,204.00
2023-04-23T04:13:50.830Z,224.00
2023-04-23T04:14:50.827Z,248.00
2023-04-23T04:15:50.834Z,284.00
2023-04-23T04:16:50.811Z,320.00
2023-04-23T04:17:50.840Z,368.00
2023-04-23T04:18:50.774Z,412.00
2023-04-23T04:19:50.765Z,456.00
2023-04-23T04:20:50.758Z,504.00
2023-04-23T04:21:50.765Z,548.00
2023-04-23T04:22:50.744Z,580.00
2023-04-23T04:23:50.719Z,608.00
2023-04-23T04:24:50.706Z,648.00
2023-04-23T04:25:50.712Z,692.00
2023-04-23T04:26:50.689Z,740.00
2023-04-23T04:27:50.683Z,784.00
2023-04-23T04:28:50.663Z,828.00
2023-04-23T04:29:50.649Z,852.00
2023-04-23T04:30:50.638Z,900.00
2023-04-23T04:31:50.747Z,996.00
2023-04-23T04:32:50.680Z,1124.00
2023-04-23T04:33:50.607Z,1252.00
2023-04-23T04:34:50.588Z,1392.00
2023-04-23T04:35:50.583Z,1528.00
2023-04-23T04:36:50.572Z,1684.00
2023-04-23T04:37:50.580Z,1864.00
2023-04-23T04:38:50.548Z,2044.00
2023-04-23T04:39:50.538Z,2220.00
2023-04-23T04:40:50.542Z,2380.00
2023-04-23T04:41:50.514Z,2512.00
2023-04-23T04:42:50.510Z,2508.00
2023-04-23T04:43:50.492Z,2504.00
2023-04-23T04:44:50.514Z,2684.00
2023-04-23T04:45:50.471Z,2876.00
2023-04-23T04:46:50.688Z,3032.00
2023-04-23T04:47:50.794Z,2944.00
2023-04-23T04:48:50.445Z,2788.00
2023-04-23T04:49:50.444Z,2740.00
2023-04-23T04:50:50.411Z,2548.00
2023-04-23T04:51:50.405Z,2672.00
2023-04-23T04:52:50.391Z,2836.00
2023-04-23T04:53:50.403Z,2824.00
2023-04-23T04:54:50.364Z,2700.00
2023-04-23T04:55:50.357Z,2696.00
2023-04-23T04:56:50.343Z,2616.00
2023-04-23T04:57:50.347Z,2536.00
2023-04-23T04:58:50.319Z,2396.00
2023-04-23T04:59:50.326Z,2276.00
2023-04-23T05:00:50.322Z,2228.00
2023-04-23T05:01:50.287Z,2284.00
2023-04-23T05:02:50.378Z,2380.00
2023-04-23T05:03:50.429Z,2412.00
2023-04-23T05:04:50.259Z,2444.00
2023-04-23T05:05:50.241Z,2640.00
2023-04-23T05:06:50.232Z,2816.00
2023-04-23T05:07:50.216Z,3060.00
2023-04-23T05:08:50.211Z,3280.00
2023-04-23T05:09:50.245Z,3516.00
2023-04-23T05:10:50.184Z,3740.00
2023-04-23T05:11:50.169Z,3936.00
2023-04-23T05:12:50.160Z,4136.00
2023-04-23T05:13:50.149Z,4336.00
2023-04-23T05:14:51.273Z,4776.00
2023-04-23T05:15:50.140Z,5220.00
2023-04-23T05:16:50.301Z,4936.00
2023-04-23T05:17:50.170Z,4652.00
2023-04-23T05:18:50.098Z,4564.00
2023-04-23T05:19:50.083Z,4556.00
2023-04-23T05:20:50.073Z,4588.00
2023-04-23T05:21:50.073Z,4612.00
2023-04-23T05:22:50.046Z,4624.00
2023-04-23T05:23:50.060Z,4644.00
2023-04-23T05:24:50.027Z,4660.00
2023-04-23T05:25:50.439Z,4676.00
2023-04-23T05:26:50.012Z,4688.00
2023-04-23T05:27:50.018Z,4712.00
2023-04-23T05:28:49.981Z,4756.00
2023-04-23T05:29:49.968Z,4808.00
2023-04-23T05:30:50.112Z,4884.00
2023-04-23T05:31:50.075Z,4972.00
2023-04-23T05:32:49.946Z,5084.00
2023-04-23T05:33:50.892Z,5212.00
2023-04-23T05:34:49.912Z,5364.00
2023-04-23T05:35:49.899Z,5524.00
2023-04-23T05:36:49.894Z,5676.00
2023-04-23T05:37:49.899Z,5812.00
2023-04-23T05:38:49.880Z,5928.00
2023-04-23T05:39:49.871Z,6024.00
2023-04-23T05:40:49.845Z,6104.00
2023-04-23T05:41:49.847Z,6184.00
2023-04-23T05:42:49.815Z,6252.00
2023-04-23T05:43:49.828Z,6336.00
2023-04-23T05:44:49.795Z,6432.00
2023-04-23T05:45:49.805Z,6552.00
2023-04-23T05:46:49.768Z,6696.00
2023-04-23T05:47:49.870Z,6864.00
2023-04-23T05:48:49.747Z,7040.00
2023-04-23T05:49:49.736Z,7208.00
2023-04-23T05:50:49.729Z,7360.00
2023-04-23T05:51:49.710Z,7504.00
2023-04-23T05:52:49.711Z,7628.00
2023-04-23T05:53:49.853Z,7776.00
2023-04-23T05:54:49.687Z,7896.00
2023-04-23T05:55:49.674Z,8024.00
2023-04-23T05:56:49.654Z,8116.00
2023-04-23T05:57:49.666Z,8208.00
2023-04-23T05:58:49.636Z,8272.00
2023-04-23T05:59:49.635Z,8324.00
2023-04-23T06:00:49.612Z,8476.00
2023-04-23T06:01:49.602Z,8624.00
2023-04-23T06:02:49.660Z,8716.00
2023-04-23T06:03:49.707Z,8792.00
2023-04-23T06:04:49.915Z,8916.00
2023-04-23T06:05:49.558Z,9036.00
2023-04-23T06:06:49.548Z,9128.00
2023-04-23T06:07:49.543Z,9196.00
2023-04-23T06:08:49.526Z,9316.00
2023-04-23T06:09:49.535Z,9492.00
2023-04-23T06:10:49.519Z,9372.00
2023-04-23T06:11:49.492Z,9460.00
2023-04-23T06:12:49.501Z,9444.00
2023-04-23T06:13:49.494Z,9724.00
2023-04-23T06:14:49.456Z,10344.00
2023-04-23T06:15:49.468Z,10320.00
2023-04-23T06:16:49.437Z,10744.00
2023-04-23T06:17:49.447Z,10764.00
2023-04-23T06:18:49.411Z,10988.00
2023-04-23T06:19:49.399Z,12240.00
2023-04-23T06:20:49.389Z,11580.00
2023-04-23T06:21:49.377Z,11540.00
2023-04-23T06:22:49.363Z,11508.00
2023-04-23T06:23:49.356Z,10900.00
2023-04-23T06:24:49.340Z,10728.00
2023-04-23T06:25:49.335Z,11336.00
2023-04-23T06:26:49.320Z,17952.00
2023-04-23T06:27:49.319Z,11776.00
2023-04-23T06:28:49.318Z,10908.00
2023-04-23T06:29:49.352Z,13164.00
2023-04-23T06:30:49.302Z,21504.00
2023-04-23T06:31:49.329Z,12436.00
2023-04-23T06:32:49.274Z,19232.00
2023-04-23T06:33:49.240Z,11448.00
2023-04-23T06:35:00.007Z,14136.00
2023-04-23T06:35:49.217Z,13260.00
2023-04-23T06:36:49.208Z,17344.00
2023-04-23T06:37:49.194Z,16608.00
2023-04-23T06:38:49.212Z,12864.00
2023-04-23T06:39:49.171Z,13088.00
2023-04-23T06:40:49.162Z,13940.00
2023-04-23T06:41:49.158Z,13732.00
2023-04-23T06:42:49.141Z,16320.00
2023-04-23T06:43:49.125Z,22112.00
2023-04-23T06:44:49.110Z,22656.00
2023-04-23T06:45:49.133Z,14016.00
2023-04-23T06:46:49.167Z,14148.00
2023-04-23T06:47:49.143Z,17728.00
2023-04-23T06:48:49.072Z,15256.00
2023-04-23T06:49:49.062Z,22752.00
2023-04-23T06:50:49.046Z,23808.00
2023-04-23T06:51:49.034Z,17984.00
2023-04-23T06:52:49.024Z,19392.00
2023-04-23T06:53:49.016Z,19744.00
2023-04-23T06:54:49.010Z,20160.00
2023-04-23T06:55:48.996Z,14128.00
2023-04-23T06:56:48.985Z,12536.00
2023-04-23T06:57:48.970Z,12896.00
2023-04-23T06:58:48.957Z,11108.00
2023-04-23T06:59:48.955Z,10308.00
2023-04-23T07:00:48.954Z,10556.00
2023-04-23T07:01:48.957Z,14168.00
2023-04-23T07:02:48.985Z,29504.00
2023-04-23T07:03:48.956Z,27008.00
2023-04-23T07:04:48.906Z,27168.00
2023-04-23T07:05:48.888Z,11764.00
2023-04-23T07:06:48.898Z,13348.00
2023-04-23T07:07:48.869Z,13792.00
2023-04-23T07:08:48.968Z,18720.00
2023-04-23T07:09:48.862Z,14572.00
2023-04-23T07:10:48.836Z,15484.00
2023-04-23T07:11:48.833Z,10256.00
2023-04-23T07:12:48.819Z,9328.00
2023-04-23T07:13:48.808Z,8120.00
2023-04-23T07:14:48.797Z,7992.00
2023-04-23T07:15:48.789Z,12536.00
2023-04-23T07:16:48.797Z,15816.00
2023-04-23T07:17:48.817Z,25984.00
2023-04-23T07:18:48.751Z,32704.00
2023-04-23T07:19:48.775Z,31808.00
2023-04-23T07:20:48.736Z,24544.00
2023-04-23T07:21:48.757Z,18528.00
2023-04-23T07:22:48.717Z,27328.00
2023-04-23T07:23:48.709Z,22304.00
2023-04-23T07:24:48.697Z,18080.00
2023-04-23T07:25:48.681Z,25696.00
2023-04-23T07:26:48.694Z,31360.00
2023-04-23T07:27:48.665Z,27840.00
2023-04-23T07:28:50.306Z,25280.00
2023-04-23T07:29:48.645Z,34304.00
2023-04-23T07:30:48.632Z,37632.00
2023-04-23T07:31:48.642Z,40992.00
2023-04-23T07:32:48.627Z,43872.00
2023-04-23T07:33:48.619Z,44192.00
2023-04-23T07:34:48.583Z,44480.00
2023-04-23T07:35:48.576Z,42048.00
2023-04-23T07:36:48.559Z,40800.00
2023-04-23T07:37:48.549Z,43520.00
2023-04-23T07:38:48.538Z,43456.00
2023-04-23T07:39:48.803Z,42464.00
2023-04-23T07:40:48.877Z,41760.00
2023-04-23T07:41:48.572Z,37664.00
2023-04-23T07:42:48.499Z,31840.00
2023-04-23T07:43:48.492Z,28224.00
2023-04-23T07:44:48.481Z,28896.00
2023-04-23T07:45:48.501Z,22656.00
2023-04-23T07:46:48.463Z,24512.00
2023-04-23T07:47:48.488Z,28128.00
2023-04-23T07:48:48.426Z,26624.00
2023-04-23T07:49:48.443Z,26240.00
2023-04-23T07:50:48.410Z,32608.00
2023-04-23T07:51:48.402Z,33920.00
2023-04-23T07:52:48.400Z,37248.00
2023-04-23T07:53:48.370Z,36032.00
2023-04-23T07:54:48.358Z,43328.00
2023-04-23T07:55:48.354Z,48384.00
2023-04-23T07:56:48.343Z,48512.00
2023-04-23T07:57:48.335Z,49888.00
2023-04-23T07:58:48.314Z,42688.00
2023-04-23T07:59:48.305Z,43008.00
2023-04-23T08:00:48.301Z,43488.00
2023-04-23T08:01:48.281Z,42784.00
2023-04-23T08:02:48.539Z,45504.00
2023-04-23T08:03:48.427Z,46240.00
2023-04-23T08:04:48.529Z,43520.00
2023-04-23T08:05:48.314Z,46688.00
2023-04-23T08:06:48.247Z,47936.00
2023-04-23T08:07:48.220Z,52864.00
2023-04-23T08:08:48.209Z,51520.00
2023-04-23T08:09:48.458Z,48544.00
2023-04-23T08:10:48.188Z,48480.00
2023-04-23T08:11:48.207Z,47840.00
2023-04-23T08:12:48.168Z,46688.00
2023-04-23T08:13:48.154Z,45920.00
2023-04-23T08:14:48.138Z,45184.00
2023-04-23T08:15:48.145Z,44544.00
2023-04-23T08:16:48.109Z,44640.00
2023-04-23T08:17:48.133Z,45056.00
2023-04-23T08:19:03.681Z,43904.00
2023-04-23T08:19:49.112Z,42400.00
2023-04-23T08:20:48.080Z,43968.00
2023-04-23T08:21:48.080Z,44288.00
2023-04-23T08:22:48.045Z,44352.00
2023-04-23T08:23:48.042Z,44640.00
2023-04-23T08:24:48.024Z,42752.00
2023-04-23T08:25:48.014Z,44384.00
2023-04-23T08:26:48.003Z,45312.00
2023-04-23T08:27:47.993Z,45888.00
2023-04-23T08:28:47.986Z,46496.00
2023-04-23T08:29:47.966Z,44640.00
2023-04-23T08:30:47.960Z,45856.00
2023-04-23T08:31:47.967Z,47040.00
2023-04-23T08:32:48.041Z,46016.00
2023-04-23T08:33:47.924Z,46656.00
2023-04-23T08:34:47.915Z,47552.00
2023-04-23T08:35:47.904Z,47904.00
2023-04-23T08:36:47.896Z,46528.00
2023-04-23T08:37:47.904Z,46656.00
2023-04-23T08:38:47.867Z,47360.00
2023-04-23T08:39:47.859Z,48992.00
2023-04-23T08:40:47.845Z,50176.00
2023-04-23T08:41:47.880Z,48672.00
2023-04-23T08:42:47.840Z,49440.00
2023-04-23T08:43:47.822Z,51328.00
2023-04-23T08:44:47.803Z,51616.00
2023-04-23T08:45:47.814Z,51136.00
2023-04-23T08:46:47.807Z,51200.00
2023-04-23T08:47:47.832Z,50688.00
2023-04-23T08:48:47.772Z,51200.00
2023-04-23T08:49:47.751Z,52864.00
2023-04-23T08:50:47.737Z,53440.00
2023-04-23T08:51:47.729Z,52832.00
2023-04-23T08:52:47.716Z,53760.00
2023-04-23T08:53:47.730Z,53888.00
2023-04-23T08:54:47.696Z,53632.00
2023-04-23T08:55:47.685Z,54048.00
2023-04-23T08:56:47.677Z,55296.00
2023-04-23T08:57:47.662Z,55936.00
2023-04-23T08:58:47.726Z,55168.00
2023-04-23T08:59:47.686Z,54944.00
2023-04-23T09:00:47.654Z,54496.00
2023-04-23T09:01:47.684Z,55008.00
2023-04-23T09:02:47.896Z,56096.00
2023-04-23T09:03:47.730Z,58016.00
2023-04-23T09:04:48.925Z,58592.00
2023-04-23T09:05:47.654Z,60640.00
2023-04-23T09:06:47.662Z,60352.00
2023-04-23T09:07:47.667Z,61024.00
2023-04-23T09:08:47.648Z,61216.00
2023-04-23T09:09:47.678Z,58944.00
2023-04-23T09:10:47.686Z,60000.00
2023-04-23T09:11:47.704Z,60288.00
2023-04-23T09:12:47.503Z,61216.00
2023-04-23T09:13:47.495Z,61216.00
2023-04-23T09:15:47.473Z,61344.00
2023-04-23T09:16:47.512Z,63648.00
2023-04-23T09:17:47.565Z,62720.00
2023-04-23T09:18:47.478Z,64128.00
2023-04-23T09:19:47.429Z,65152.00
2023-04-23T09:20:47.424Z,63840.00
2023-04-23T09:21:47.405Z,63424.00
2023-04-23T09:22:47.866Z,64416.00
2023-04-23T09:23:47.393Z,67552.00
2023-04-23T09:24:47.373Z,72288.00
2023-04-23T09:25:47.382Z,73056.00
2023-04-23T09:26:47.353Z,72544.00
2023-04-23T09:27:47.346Z,73152.00
2023-04-23T09:28:49.520Z,72544.00
2023-04-23T09:29:47.322Z,69184.00
2023-04-23T09:30:47.311Z,70368.00
2023-04-23T09:31:47.496Z,70080.00
2023-04-23T09:32:47.449Z,71936.00
2023-04-23T09:33:47.280Z,73728.00
2023-04-23T09:34:47.267Z,77376.00
2023-04-23T09:35:47.259Z,77152.00
2023-04-23T09:36:47.248Z,80480.00
2023-04-23T09:37:47.241Z,77152.00
2023-04-23T09:38:47.222Z,82112.00
2023-04-23T09:39:47.218Z,82368.00
2023-04-23T09:40:47.205Z,76960.00
2023-04-23T09:41:47.221Z,77216.00
2023-04-23T09:42:47.189Z,74688.00
2023-04-23T09:43:47.177Z,70240.00
2023-04-23T09:44:47.164Z,68128.00
2023-04-23T09:45:47.231Z,71136.00
2023-04-23T09:46:47.221Z,73216.00
2023-04-23T09:47:47.196Z,76768.00
2023-04-23T09:48:47.946Z,72096.00
2023-04-23T09:49:47.115Z,73760.00
2023-04-23T09:50:47.104Z,74080.00
2023-04-23T09:51:47.166Z,72960.00
2023-04-23T09:52:47.082Z,73024.00
2023-04-23T09:53:47.068Z,75392.00
2023-04-23T09:54:47.072Z,78144.00
2023-04-23T09:55:47.130Z,71104.00
2023-04-23T09:56:47.076Z,74432.00
2023-04-23T09:57:47.053Z,80192.00
2023-04-23T09:58:47.014Z,75648.00
2023-04-23T09:59:50.210Z,79872.00
2023-04-23T10:00:46.999Z,73248.00
2023-04-23T10:01:47.037Z,72800.00
2023-04-23T10:02:47.073Z,39104.00
2023-04-23T10:03:47.060Z,44032.00
2023-04-23T10:04:47.119Z,87168.00
2023-04-23T10:06:57.905Z,85472.00
2023-04-23T10:07:47.948Z,78432.00
2023-04-23T10:08:46.906Z,83200.00
2023-04-23T10:09:46.962Z,86720.00
2023-04-23T10:11:00.011Z,82944.00
2023-04-23T10:11:47.900Z,85216.00
2023-04-23T10:12:54.862Z,85600.00
2023-04-23T10:13:46.882Z,82496.00
2023-04-23T10:14:46.955Z,82688.00
2023-04-23T10:15:46.891Z,79904.00
2023-04-23T10:16:49.201Z,77248.00
2023-04-23T10:17:46.846Z,77376.00
2023-04-23T10:18:46.825Z,73184.00
2023-04-23T10:19:47.212Z,75680.00
2023-04-23T10:20:46.783Z,72352.00
2023-04-23T10:21:54.761Z,75968.00
2023-04-23T10:22:47.792Z,75584.00
2023-04-23T10:23:46.748Z,72320.00
2023-04-23T10:24:48.731Z,73376.00
2023-04-23T10:25:46.722Z,76736.00
2023-04-23T10:26:46.713Z,70656.00
2023-04-23T10:27:53.644Z,76000.00
2023-04-23T10:28:46.689Z,76096.00
2023-04-23T10:29:46.713Z,73664.00
2023-04-23T10:30:46.690Z,70368.00
2023-04-23T10:31:46.920Z,81440.00
2023-04-23T10:32:46.812Z,73216.00
2023-04-23T10:33:57.281Z,73728.00
2023-04-23T10:34:46.629Z,76640.00
2023-04-23T10:35:48.667Z,79648.00
2023-04-23T10:36:46.612Z,76928.00
2023-04-23T10:37:46.771Z,79584.00
2023-04-23T10:38:57.402Z,81088.00
2023-04-23T10:39:46.791Z,79488.00
2023-04-23T10:40:46.578Z,82368.00
2023-04-23T10:41:46.602Z,78880.00
2023-04-23T10:42:46.600Z,76704.00
2023-04-23T10:43:46.538Z,84384.00
2023-04-23T10:44:59.061Z,82784.00
2023-04-23T10:45:46.585Z,28512.00
2023-04-23T10:46:46.534Z,34720.00
2023-04-23T10:47:46.718Z,81536.00
2023-04-23T10:48:46.486Z,85344.00
2023-04-23T10:49:46.622Z,74112.00
2023-04-23T10:51:02.480Z,40640.00
2023-04-23T10:52:17.711Z,80960.00
2023-04-23T10:52:47.475Z,82496.00
2023-04-23T10:53:46.434Z,20288.00
2023-04-23T10:54:46.468Z,71904.00
2023-04-23T10:55:46.447Z,69696.00
2023-04-23T10:56:46.421Z,87776.00
2023-04-23T10:57:46.390Z,46848.00
2023-04-23T10:58:46.378Z,90880.00
2023-04-23T10:59:46.368Z,33536.00
2023-04-23T11:00:46.523Z,47104.00
2023-04-23T11:01:46.413Z,39552.00
2023-04-23T11:02:46.562Z,78880.00
2023-04-23T11:03:46.468Z,72960.00
2023-04-23T11:04:46.541Z,80256.00
2023-04-23T11:05:46.309Z,95424.00
2023-04-23T11:06:46.293Z,101120.00
2023-04-23T11:07:46.291Z,80192.00
2023-04-23T11:08:46.296Z,87520.00
2023-04-23T11:09:46.280Z,50880.00
2023-04-23T11:10:46.255Z,38240.00
2023-04-23T11:11:46.239Z,32288.00
2023-04-23T11:12:46.233Z,29248.00
2023-04-23T11:13:46.215Z,30048.00
2023-04-23T11:14:46.209Z,32832.00
2023-04-23T11:15:46.197Z,105376.00
2023-04-23T11:16:46.312Z,33696.00
2023-04-23T11:17:46.230Z,97824.00
2023-04-23T11:18:46.166Z,45216.00
2023-04-23T11:19:46.152Z,32480.00
2023-04-23T11:20:46.144Z,34624.00
2023-04-23T11:21:46.144Z,28384.00
2023-04-23T11:22:46.207Z,28064.00
2023-04-23T11:23:46.123Z,32352.00
2023-04-23T11:24:47.176Z,45120.00
2023-04-23T11:25:46.102Z,58592.00
2023-04-23T11:26:46.082Z,85568.00
2023-04-23T11:27:46.418Z,105184.00
2023-04-23T11:28:46.068Z,48128.00
2023-04-23T11:29:46.047Z,25184.00
2023-04-23T11:30:46.036Z,21568.00
2023-04-23T11:32:00.911Z,21600.00
2023-04-23T11:32:47.102Z,22624.00
2023-04-23T11:33:46.028Z,27616.00
2023-04-23T11:34:45.995Z,28800.00
2023-04-23T11:35:45.984Z,90560.00
2023-04-23T11:36:45.994Z,91392.00
2023-04-23T11:37:45.974Z,49664.00
2023-04-23T11:38:45.980Z,37568.00
2023-04-23T11:39:45.978Z,90368.00
2023-04-23T11:40:45.936Z,88672.00
2023-04-23T11:41:45.928Z,93568.00
2023-04-23T11:42:46.399Z,68672.00
2023-04-23T11:43:45.900Z,41664.00
2023-04-23T11:44:45.900Z,43744.00
2023-04-23T11:45:45.887Z,73408.00
2023-04-23T11:46:45.864Z,33984.00
2023-04-23T11:47:45.920Z,43808.00
2023-04-23T11:48:45.865Z,28800.00
2023-04-23T11:49:46.172Z,71488.00
2023-04-23T11:50:45.830Z,42272.00
2023-04-23T11:51:45.820Z,31936.00
2023-04-23T11:52:45.839Z,26976.00
2023-04-23T11:53:45.801Z,24608.00
2023-04-23T11:54:45.778Z,22720.00
2023-04-23T11:55:45.856Z,27168.00
2023-04-23T11:56:45.757Z,85792.00
2023-04-23T11:57:45.812Z,93952.00
2023-04-23T11:58:45.748Z,96416.00
2023-04-23T11:59:47.932Z,92384.00
2023-04-23T12:00:45.719Z,87072.00
2023-04-23T12:01:45.849Z,83360.00
2023-04-23T12:02:45.847Z,83744.00
2023-04-23T12:03:45.754Z,82336.00
2023-04-23T12:04:45.679Z,74944.00
2023-04-23T12:05:45.737Z,77696.00
2023-04-23T12:06:45.705Z,78336.00
2023-04-23T12:07:45.642Z,80544.00
2023-04-23T12:08:45.627Z,83456.00
2023-04-23T12:09:45.623Z,75904.00
2023-04-23T12:10:45.607Z,83552.00
2023-04-23T12:11:45.606Z,82944.00
2023-04-23T12:12:45.593Z,79488.00
2023-04-23T12:13:45.723Z,84608.00
2023-04-23T12:14:45.578Z,62144.00
2023-04-23T12:15:45.555Z,19136.00
2023-04-23T12:16:45.582Z,19104.00
2023-04-23T12:17:45.569Z,19520.00
2023-04-23T12:18:45.533Z,18720.00
2023-04-23T12:19:45.536Z,16960.00